createdAt,value
2023-04-29T00:01:52.603Z,7.70
2023-04-29T00:16:52.548Z,7.40
2023-04-29T00:31:52.726Z,7.50
2023-04-29T00:46:53.132Z,7.70
2023-04-29T01:01:53.418Z,7.70
2023-04-29T01:16:53.569Z,7.70
2023-04-29T01:31:53.746Z,8.00
2023-04-29T01:46:53.790Z,9.10
2023-04-29T02:01:54.058Z,10.40
2023-04-29T02:16:54.253Z,11.40
2023-04-29T02:31:54.438Z,12.70
2023-04-29T02:46:54.504Z,14.70
2023-04-29T03:01:54.955Z,16.20
2023-04-29T03:16:55.110Z,17.40
2023-04-29T03:31:55.101Z,16.70
2023-04-29T03:46:55.526Z,17.30
2023-04-29T04:01:55.849Z,21.00
2023-04-29T04:16:55.927Z,22.60
2023-04-29T04:31:56.121Z,315.20
2023-04-29T04:47:10.606Z,999.90
2023-04-29T05:02:16.126Z,954.80
2023-04-29T05:17:17.057Z,950.60
2023-04-29T05:32:17.011Z,495.30
2023-04-29T05:47:17.381Z,523.40
2023-04-29T06:02:17.791Z,512.50
2023-04-29T06:17:18.650Z,497.20
2023-04-29T06:32:18.852Z,541.20
2023-04-29T06:47:19.046Z,560.80
2023-04-29T07:02:19.239Z,394.90
2023-04-29T07:17:19.315Z,120.50
2023-04-29T07:32:19.335Z,794.90
2023-04-29T07:47:19.263Z,399.60
2023-04-29T08:02:19.528Z,680.80
2023-04-29T08:17:19.828Z,329.90
2023-04-29T08:32:19.884Z,694.30
2023-04-29T08:47:20.100Z,377.30
2023-04-29T09:02:20.454Z,409.20
2023-04-29T09:17:20.349Z,496.60
2023-04-29T09:32:20.406Z,148.20
2023-04-29T09:47:20.976Z,125.20
2023-04-29T10:02:21.490Z,114.10
2023-04-29T10:17:21.420Z,138.60
2023-04-29T10:32:21.805Z,24.80
2023-04-29T10:47:21.671Z,150.60
2023-04-29T11:02:22.249Z,111.50
2023-04-29T11:17:22.427Z,207.20
2023-04-29T11:32:23.133Z,107.30
2023-04-29T11:47:23.587Z,13.60
2023-04-29T12:02:23.816Z,35.40
2023-04-29T12:17:24.203Z,127.50
2023-04-29T12:32:24.342Z,10.30
2023-04-29T12:47:24.569Z,19.10
2023-04-29T13:02:26.329Z,7.20
2023-04-29T13:17:26.806Z,117.70
2023-04-29T13:32:34.705Z,101.00
2023-04-29T13:47:32.612Z,139.90
2023-04-29T14:02:33.706Z,6.30
2023-04-29T14:17:34.685Z,5.90
2023-04-29T14:32:35.315Z,3.80
2023-04-29T14:47:35.300Z,68.90
2023-04-29T15:02:35.350Z,86.00
2023-04-29T15:17:36.030Z,86.60
2023-04-29T15:32:37.127Z,5.20
2023-04-29T15:47:37.908Z,80.90
2023-04-29T16:02:38.269Z,43.10
2023-04-29T16:17:38.685Z,2.70
2023-04-29T16:32:38.805Z,77.80
2023-04-29T16:47:39.294Z,83.10
2023-04-29T17:02:39.489Z,58.40
